sensor_id;sensor_type;location;lat;lon;timestamp;temperature;humidity
1225;DHT22;602;48.000;7.840;2023-04-08T00:01:05;10.10;99.90
1225;DHT22;602;48.000;7.840;2023-04-08T00:03:32;10.20;99.90
1225;DHT22;602;48.000;7.840;2023-04-08T00:05:59;10.20;99.90
1225;DHT22;602;48.000;7.840;2023-04-08T00:08:27;10.20;99.90
1225;DHT22;602;48.000;7.840;2023-04-08T00:10:55;10.20;99.90
1225;DHT22;602;48.000;7.840;2023-04-08T00:13:22;10.20;99.90
1225;DHT22;602;48.000;7.840;2023-04-08T00:15:48;10.20;99.90
1225;DHT22;602;48.000;7.840;2023-04-08T00:18:17;10.10;99.90
1225;DHT22;602;48.000;7.840;2023-04-08T00:20:44;10.10;99.90
1225;DHT22;602;48.000;7.840;2023-04-08T00:23:11;10.10;99.90
1225;DHT22;602;48.000;7.840;2023-04-08T00:25:37;10.10;99.90
1225;DHT22;602;48.000;7.840;2023-04-08T00:28:04;10.20;99.90
1225;DHT22;602;48.000;7.840;2023-04-08T00:30:31;10.20;99.90
1225;DHT22;602;48.000;7.840;2023-04-08T00:32:58;10.20;99.90
1225;DHT22;602;48.000;7.840;2023-04-08T00:35:26;10.30;99.90
1225;DHT22;602;48.000;7.840;2023-04-08T00:37:53;10.30;99.90
1225;DHT22;602;48.000;7.840;2023-04-08T00:40:20;10.30;99.90
1225;DHT22;602;48.000;7.840;2023-04-08T00:42:47;10.30;99.90
1225;DHT22;602;48.000;7.840;2023-04-08T00:45:13;10.30;99.90
1225;DHT22;602;48.000;7.840;2023-04-08T00:47:41;10.30;99.90
1225;DHT22;602;48.000;7.840;2023-04-08T00:50:08;10.30;99.90
1225;DHT22;602;48.000;7.840;2023-04-08T00:52:37;10.40;99.90
1225;DHT22;602;48.000;7.840;2023-04-08T00:55:05;10.30;99.90
1225;DHT22;602;48.000;7.840;2023-04-08T00:57:32;10.30;99.90
1225;DHT22;602;48.000;7.840;2023-04-08T00:59:59;10.30;99.90
1225;DHT22;602;48.000;7.840;2023-04-08T01:02:33;10.30;99.90
1225;DHT22;602;48.000;7.840;2023-04-08T01:05:04;10.30;99.90
1225;DHT22;602;48.000;7.840;2023-04-08T01:07:34;10.20;99.90
1225;DHT22;602;48.000;7.840;2023-04-08T01:10:06;10.10;99.90
1225;DHT22;602;48.000;7.840;2023-04-08T01:12:41;10.00;99.90
1225;DHT22;602;48.000;7.840;2023-04-08T01:15:10;10.00;99.90
1225;DHT22;602;48.000;7.840;2023-04-08T01:17:39;10.00;99.90
1225;DHT22;602;48.000;7.840;2023-04-08T01:20:08;10.00;99.90
1225;DHT22;602;48.000;7.840;2023-04-08T01:22:43;10.00;99.90
1225;DHT22;602;48.000;7.840;2023-04-08T01:25:16;10.00;99.90
1225;DHT22;602;48.000;7.840;2023-04-08T01:27:47;10.00;99.90
1225;DHT22;602;48.000;7.840;2023-04-08T01:30:17;10.00;99.90
1225;DHT22;602;48.000;7.840;2023-04-08T01:32:45;10.00;99.90
1225;DHT22;602;48.000;7.840;2023-04-08T01:35:14;10.00;99.90
1225;DHT22;602;48.000;7.840;2023-04-08T01:37:41;10.00;99.90
1225;DHT22;602;48.000;7.840;2023-04-08T01:40:10;10.00;99.90
1225;DHT22;602;48.000;7.840;2023-04-08T01:42:37;9.90;99.90
1225;DHT22;602;48.000;7.840;2023-04-08T01:45:08;9.90;99.90
1225;DHT22;602;48.000;7.840;2023-04-08T01:47:36;9.90;99.90
1225;DHT22;602;48.000;7.840;2023-04-08T01:50:05;9.60;99.90
1225;DHT22;602;48.000;7.840;2023-04-08T01:52:34;9.50;99.90
1225;DHT22;602;48.000;7.840;2023-04-08T01:55:01;9.60;99.90
1225;DHT22;602;48.000;7.840;2023-04-08T01:57:31;9.60;99.90
1225;DHT22;602;48.000;7.840;2023-04-08T02:00:01;9.60;99.90
1225;DHT22;602;48.000;7.840;2023-04-08T02:02:31;9.50;99.90
1225;DHT22;602;48.000;7.840;2023-04-08T02:04:58;9.50;99.90
1225;DHT22;602;48.000;7.840;2023-04-08T02:07:25;9.50;99.90
1225;DHT22;602;48.000;7.840;2023-04-08T02:09:52;9.50;99.90
1225;DHT22;602;48.000;7.840;2023-04-08T02:12:19;9.60;99.90
1225;DHT22;602;48.000;7.840;2023-04-08T02:14:46;9.60;99.90
1225;DHT22;602;48.000;7.840;2023-04-08T02:17:20;9.40;99.90
1225;DHT22;602;48.000;7.840;2023-04-08T02:19:54;9.40;99.90
1225;DHT22;602;48.000;7.840;2023-04-08T02:22:39;9.40;99.90
1225;DHT22;602;48.000;7.840;2023-04-08T02:25:08;9.50;99.90
1225;DHT22;602;48.000;7.840;2023-04-08T02:27:38;9.50;99.90
1225;DHT22;602;48.000;7.840;2023-04-08T02:30:07;9.50;99.90
1225;DHT22;602;48.000;7.840;2023-04-08T02:32:36;9.50;99.90
1225;DHT22;602;48.000;7.840;2023-04-08T02:35:05;9.50;99.90
1225;DHT22;602;48.000;7.840;2023-04-08T02:37:32;9.50;99.90
1225;DHT22;602;48.000;7.840;2023-04-08T02:39:59;9.50;99.90
1225;DHT22;602;48.000;7.840;2023-04-08T02:42:26;9.40;99.90
1225;DHT22;602;48.000;7.840;2023-04-08T02:44:53;9.40;99.90
1225;DHT22;602;48.000;7.840;2023-04-08T02:47:20;9.40;99.90
1225;DHT22;602;48.000;7.840;2023-04-08T02:49:47;9.40;99.90
1225;DHT22;602;48.000;7.840;2023-04-08T02:52:18;9.50;99.90
1225;DHT22;602;48.000;7.840;2023-04-08T02:54:45;9.50;99.90
1225;DHT22;602;48.000;7.840;2023-04-08T02:57:12;9.50;99.90
1225;DHT22;602;48.000;7.840;2023-04-08T02:59:39;9.50;99.90
1225;DHT22;602;48.000;7.840;2023-04-08T03:02:06;9.50;99.90
1225;DHT22;602;48.000;7.840;2023-04-08T03:04:32;9.50;99.90
1225;DHT22;602;48.000;7.840;2023-04-08T03:06:59;9.60;99.90
1225;DHT22;602;48.000;7.840;2023-04-08T03:09:27;9.60;99.90
1225;DHT22;602;48.000;7.840;2023-04-08T03:11:54;9.60;99.90
1225;DHT22;602;48.000;7.840;2023-04-08T03:14:21;9.70;99.90
1225;DHT22;602;48.000;7.840;2023-04-08T03:16:48;9.80;99.90
1225;DHT22;602;48.000;7.840;2023-04-08T03:19:15;9.80;99.90
1225;DHT22;602;48.000;7.840;2023-04-08T03:21:42;9.80;99.90
1225;DHT22;602;48.000;7.840;2023-04-08T03:24:09;9.90;99.90
1225;DHT22;602;48.000;7.840;2023-04-08T03:26:37;9.90;99.90
1225;DHT22;602;48.000;7.840;2023-04-08T03:29:04;9.90;99.90
1225;DHT22;602;48.000;7.840;2023-04-08T03:31:31;9.90;99.90
1225;DHT22;602;48.000;7.840;2023-04-08T03:33:58;10.00;99.90
1225;DHT22;602;48.000;7.840;2023-04-08T03:36:25;10.00;99.90
1225;DHT22;602;48.000;7.840;2023-04-08T03:38:52;9.80;99.90
1225;DHT22;602;48.000;7.840;2023-04-08T03:41:19;9.90;99.90
1225;DHT22;602;48.000;7.840;2023-04-08T03:43:48;9.90;99.90
1225;DHT22;602;48.000;7.840;2023-04-08T03:46:15;9.90;99.90
1225;DHT22;602;48.000;7.840;2023-04-08T03:48:41;9.90;99.90
1225;DHT22;602;48.000;7.840;2023-04-08T03:51:08;9.90;99.90
1225;DHT22;602;48.000;7.840;2023-04-08T03:53:35;9.90;99.90
1225;DHT22;602;48.000;7.840;2023-04-08T03:56:02;9.90;99.90
1225;DHT22;602;48.000;7.840;2023-04-08T03:58:29;9.80;99.90
1225;DHT22;602;48.000;7.840;2023-04-08T04:00:57;9.80;99.90
1225;DHT22;602;48.000;7.840;2023-04-08T04:03:24;9.80;99.90
1225;DHT22;602;48.000;7.840;2023-04-08T04:05:51;9.90;99.90
1225;DHT22;602;48.000;7.840;2023-04-08T04:08:18;9.90;99.90
1225;DHT22;602;48.000;7.840;2023-04-08T04:10:45;9.90;99.90
1225;DHT22;602;48.000;7.840;2023-04-08T04:13:12;9.90;99.90
1225;DHT22;602;48.000;7.840;2023-04-08T04:15:39;9.90;99.90
1225;DHT22;602;48.000;7.840;2023-04-08T04:18:07;10.00;99.90
1225;DHT22;602;48.000;7.840;2023-04-08T04:20:34;9.90;99.90
1225;DHT22;602;48.000;7.840;2023-04-08T04:23:02;9.90;99.90
1225;DHT22;602;48.000;7.840;2023-04-08T04:25:29;9.90;99.90
1225;DHT22;602;48.000;7.840;2023-04-08T04:27:56;9.90;99.90
1225;DHT22;602;48.000;7.840;2023-04-08T04:30:23;10.00;99.90
1225;DHT22;602;48.000;7.840;2023-04-08T04:32:50;9.90;99.90
1225;DHT22;602;48.000;7.840;2023-04-08T04:35:18;9.90;99.90
1225;DHT22;602;48.000;7.840;2023-04-08T04:37:45;9.90;99.90
1225;DHT22;602;48.000;7.840;2023-04-08T04:40:14;9.80;99.90
1225;DHT22;602;48.000;7.840;2023-04-08T04:42:41;9.80;99.90
1225;DHT22;602;48.000;7.840;2023-04-08T04:45:09;9.80;99.90
1225;DHT22;602;48.000;7.840;2023-04-08T04:47:36;9.80;99.90
1225;DHT22;602;48.000;7.840;2023-04-08T04:50:03;9.80;99.90
1225;DHT22;602;48.000;7.840;2023-04-08T04:52:31;9.80;99.90
1225;DHT22;602;48.000;7.840;2023-04-08T04:54:58;9.80;99.90
1225;DHT22;602;48.000;7.840;2023-04-08T04:57:25;9.80;99.90
1225;DHT22;602;48.000;7.840;2023-04-08T04:59:52;9.80;99.90
1225;DHT22;602;48.000;7.840;2023-04-08T05:02:19;9.80;99.90
1225;DHT22;602;48.000;7.840;2023-04-08T05:04:45;9.80;99.90
1225;DHT22;602;48.000;7.840;2023-04-08T05:07:12;9.80;99.90
1225;DHT22;602;48.000;7.840;2023-04-08T05:09:40;9.80;99.90
1225;DHT22;602;48.000;7.840;2023-04-08T05:12:07;9.80;99.90
1225;DHT22;602;48.000;7.840;2023-04-08T05:14:34;9.80;99.90
1225;DHT22;602;48.000;7.840;2023-04-08T05:17:01;9.80;99.90
1225;DHT22;602;48.000;7.840;2023-04-08T05:19:30;9.80;99.90
1225;DHT22;602;48.000;7.840;2023-04-08T05:21:57;9.80;99.90
1225;DHT22;602;48.000;7.840;2023-04-08T05:24:23;9.80;99.90
1225;DHT22;602;48.000;7.840;2023-04-08T05:26:52;9.80;99.90
1225;DHT22;602;48.000;7.840;2023-04-08T05:29:19;9.80;99.90
1225;DHT22;602;48.000;7.840;2023-04-08T05:31:46;9.80;99.90
1225;DHT22;602;48.000;7.840;2023-04-08T05:34:13;9.80;99.90
1225;DHT22;602;48.000;7.840;2023-04-08T05:36:40;9.80;99.90
1225;DHT22;602;48.000;7.840;2023-04-08T05:39:07;9.80;99.90
1225;DHT22;602;48.000;7.840;2023-04-08T05:41:34;9.70;99.90
1225;DHT22;602;48.000;7.840;2023-04-08T05:44:02;9.70;99.90
1225;DHT22;602;48.000;7.840;2023-04-08T05:46:29;9.60;99.90
1225;DHT22;602;48.000;7.840;2023-04-08T05:48:56;9.60;99.90
1225;DHT22;602;48.000;7.840;2023-04-08T05:51:22;9.50;99.90
1225;DHT22;602;48.000;7.840;2023-04-08T05:53:49;9.30;99.90
1225;DHT22;602;48.000;7.840;2023-04-08T05:56:16;9.30;99.90
1225;DHT22;602;48.000;7.840;2023-04-08T05:58:43;9.20;99.90
1225;DHT22;602;48.000;7.840;2023-04-08T06:01:12;9.20;99.90
1225;DHT22;602;48.000;7.840;2023-04-08T06:03:40;9.20;99.90
1225;DHT22;602;48.000;7.840;2023-04-08T06:06:09;9.10;99.90
1225;DHT22;602;48.000;7.840;2023-04-08T06:08:36;9.10;99.90
1225;DHT22;602;48.000;7.840;2023-04-08T06:11:04;9.10;99.90
1225;DHT22;602;48.000;7.840;2023-04-08T06:13:31;9.00;99.90
1225;DHT22;602;48.000;7.840;2023-04-08T06:15:58;9.00;99.90
1225;DHT22;602;48.000;7.840;2023-04-08T06:18:26;9.10;99.90
1225;DHT22;602;48.000;7.840;2023-04-08T06:20:53;9.00;99.90
1225;DHT22;602;48.000;7.840;2023-04-08T06:23:20;9.10;99.90
1225;DHT22;602;48.000;7.840;2023-04-08T06:25:47;9.20;99.90
1225;DHT22;602;48.000;7.840;2023-04-08T06:28:14;9.20;99.90
1225;DHT22;602;48.000;7.840;2023-04-08T06:30:40;9.20;99.90
1225;DHT22;602;48.000;7.840;2023-04-08T06:33:07;9.20;99.90
1225;DHT22;602;48.000;7.840;2023-04-08T06:35:36;9.30;99.90
1225;DHT22;602;48.000;7.840;2023-04-08T06:38:03;9.40;99.90
1225;DHT22;602;48.000;7.840;2023-04-08T06:40:30;9.40;99.90
1225;DHT22;602;48.000;7.840;2023-04-08T06:42:56;9.50;99.90
1225;DHT22;602;48.000;7.840;2023-04-08T06:45:23;9.50;99.90
1225;DHT22;602;48.000;7.840;2023-04-08T06:47:50;9.50;99.90
1225;DHT22;602;48.000;7.840;2023-04-08T06:50:17;9.30;99.90
1225;DHT22;602;48.000;7.840;2023-04-08T06:52:45;9.30;99.90
1225;DHT22;602;48.000;7.840;2023-04-08T06:55:12;9.30;99.90
1225;DHT22;602;48.000;7.840;2023-04-08T06:57:39;9.30;99.90
1225;DHT22;602;48.000;7.840;2023-04-08T07:00:07;9.40;99.90
1225;DHT22;602;48.000;7.840;2023-04-08T07:02:34;9.50;99.90
1225;DHT22;602;48.000;7.840;2023-04-08T07:05:01;9.50;99.90
1225;DHT22;602;48.000;7.840;2023-04-08T07:07:28;9.50;99.90
1225;DHT22;602;48.000;7.840;2023-04-08T07:09:57;9.50;99.90
1225;DHT22;602;48.000;7.840;2023-04-08T07:12:24;9.50;99.90
1225;DHT22;602;48.000;7.840;2023-04-08T07:14:51;9.40;99.90
1225;DHT22;602;48.000;7.840;2023-04-08T07:17:18;9.30;99.90
1225;DHT22;602;48.000;7.840;2023-04-08T07:19:45;9.40;99.90
1225;DHT22;602;48.000;7.840;2023-04-08T07:22:12;9.60;99.90
1225;DHT22;602;48.000;7.840;2023-04-08T07:24:39;9.70;99.90
1225;DHT22;602;48.000;7.840;2023-04-08T07:27:09;9.90;99.90
1225;DHT22;602;48.000;7.840;2023-04-08T07:29:36;9.90;99.90
1225;DHT22;602;48.000;7.840;2023-04-08T07:32:03;10.00;99.90
1225;DHT22;602;48.000;7.840;2023-04-08T07:34:30;10.10;99.90
1225;DHT22;602;48.000;7.840;2023-04-08T07:36:56;10.30;99.90
1225;DHT22;602;48.000;7.840;2023-04-08T07:39:23;10.30;99.90
1225;DHT22;602;48.000;7.840;2023-04-08T07:41:50;10.30;99.90
1225;DHT22;602;48.000;7.840;2023-04-08T07:44:18;10.30;99.90
1225;DHT22;602;48.000;7.840;2023-04-08T07:46:45;10.20;99.90
1225;DHT22;602;48.000;7.840;2023-04-08T07:49:16;10.10;99.90
1225;DHT22;602;48.000;7.840;2023-04-08T07:51:42;10.10;99.90
1225;DHT22;602;48.000;7.840;2023-04-08T07:54:09;10.10;99.90
1225;DHT22;602;48.000;7.840;2023-04-08T07:56:37;10.20;99.90
1225;DHT22;602;48.000;7.840;2023-04-08T07:59:05;10.30;99.90
1225;DHT22;602;48.000;7.840;2023-04-08T08:01:33;10.10;99.90
1225;DHT22;602;48.000;7.840;2023-04-08T08:04:00;10.30;99.90
1225;DHT22;602;48.000;7.840;2023-04-08T08:06:27;10.40;99.90
1225;DHT22;602;48.000;7.840;2023-04-08T08:08:54;10.50;99.90
1225;DHT22;602;48.000;7.840;2023-04-08T08:11:21;10.60;99.90
1225;DHT22;602;48.000;7.840;2023-04-08T08:13:48;10.70;99.90
1225;DHT22;602;48.000;7.840;2023-04-08T08:16:15;10.90;99.90
1225;DHT22;602;48.000;7.840;2023-04-08T08:18:43;11.00;99.90
1225;DHT22;602;48.000;7.840;2023-04-08T08:21:10;11.00;99.90
1225;DHT22;602;48.000;7.840;2023-04-08T08:23:37;11.00;99.90
1225;DHT22;602;48.000;7.840;2023-04-08T08:26:06;11.20;99.90
1225;DHT22;602;48.000;7.840;2023-04-08T08:28:34;11.30;99.90
1225;DHT22;602;48.000;7.840;2023-04-08T08:31:01;11.50;99.90
1225;DHT22;602;48.000;7.840;2023-04-08T08:33:30;11.50;99.90
1225;DHT22;602;48.000;7.840;2023-04-08T08:35:58;11.60;99.90
1225;DHT22;602;48.000;7.840;2023-04-08T08:38:25;11.70;99.90
1225;DHT22;602;48.000;7.840;2023-04-08T08:40:53;11.70;99.90
1225;DHT22;602;48.000;7.840;2023-04-08T08:43:21;11.80;99.90
1225;DHT22;602;48.000;7.840;2023-04-08T08:45:48;12.00;99.90
1225;DHT22;602;48.000;7.840;2023-04-08T08:48:15;12.00;99.90
1225;DHT22;602;48.000;7.840;2023-04-08T08:50:43;12.10;99.90
1225;DHT22;602;48.000;7.840;2023-04-08T08:53:11;12.10;99.90
1225;DHT22;602;48.000;7.840;2023-04-08T08:55:38;12.10;99.90
1225;DHT22;602;48.000;7.840;2023-04-08T08:58:05;12.30;99.90
1225;DHT22;602;48.000;7.840;2023-04-08T09:00:33;12.30;99.90
1225;DHT22;602;48.000;7.840;2023-04-08T09:03:15;12.30;99.90
1225;DHT22;602;48.000;7.840;2023-04-08T09:05:47;12.50;99.90
1225;DHT22;602;48.000;7.840;2023-04-08T09:08:26;12.40;99.90
1225;DHT22;602;48.000;7.840;2023-04-08T09:10:54;12.30;99.90
1225;DHT22;602;48.000;7.840;2023-04-08T09:13:21;12.30;99.90
1225;DHT22;602;48.000;7.840;2023-04-08T09:16:02;12.50;99.90
1225;DHT22;602;48.000;7.840;2023-04-08T09:18:30;12.60;99.90
1225;DHT22;602;48.000;7.840;2023-04-08T09:20:59;12.70;99.90
1225;DHT22;602;48.000;7.840;2023-04-08T09:23:38;12.80;99.90
1225;DHT22;602;48.000;7.840;2023-04-08T09:26:10;13.00;99.90
1225;DHT22;602;48.000;7.840;2023-04-08T09:28:37;13.00;99.90
1225;DHT22;602;48.000;7.840;2023-04-08T09:31:18;12.90;99.90
1225;DHT22;602;48.000;7.840;2023-04-08T09:33:46;12.90;99.90
1225;DHT22;602;48.000;7.840;2023-04-08T09:36:13;12.90;99.90
1225;DHT22;602;48.000;7.840;2023-04-08T09:38:42;13.00;99.90
1225;DHT22;602;48.000;7.840;2023-04-08T09:41:12;13.10;99.90
1225;DHT22;602;48.000;7.840;2023-04-08T09:43:41;13.20;99.90
1225;DHT22;602;48.000;7.840;2023-04-08T09:46:14;13.10;99.90
1225;DHT22;602;48.000;7.840;2023-04-08T09:48:48;13.10;99.90
1225;DHT22;602;48.000;7.840;2023-04-08T09:51:16;13.20;99.90
1225;DHT22;602;48.000;7.840;2023-04-08T09:53:49;13.30;99.90
1225;DHT22;602;48.000;7.840;2023-04-08T09:56:19;13.30;99.90
1225;DHT22;602;48.000;7.840;2023-04-08T09:58:51;13.40;99.90
1225;DHT22;602;48.000;7.840;2023-04-08T10:01:25;13.50;99.90
1225;DHT22;602;48.000;7.840;2023-04-08T10:03:54;13.60;99.90
1225;DHT22;602;48.000;7.840;2023-04-08T10:06:27;13.60;99.90
1225;DHT22;602;48.000;7.840;2023-04-08T10:08:57;13.50;99.90
1225;DHT22;602;48.000;7.840;2023-04-08T10:11:24;13.70;99.90
1225;DHT22;602;48.000;7.840;2023-04-08T10:13:51;13.60;99.90
1225;DHT22;602;48.000;7.840;2023-04-08T10:16:23;13.70;99.90
1225;DHT22;602;48.000;7.840;2023-04-08T10:18:53;13.70;99.90
1225;DHT22;602;48.000;7.840;2023-04-08T10:21:39;13.70;99.90
1225;DHT22;602;48.000;7.840;2023-04-08T10:24:10;13.60;99.90
1225;DHT22;602;48.000;7.840;2023-04-08T10:26:39;13.60;99.90
1225;DHT22;602;48.000;7.840;2023-04-08T10:32:28;13.40;99.90
1225;DHT22;602;48.000;7.840;2023-04-08T10:34:55;13.40;99.90
1225;DHT22;602;48.000;7.840;2023-04-08T10:37:22;13.40;99.90
1225;DHT22;602;48.000;7.840;2023-04-08T10:39:53;13.30;99.90
1225;DHT22;602;48.000;7.840;2023-04-08T10:42:26;13.40;99.90
1225;DHT22;602;48.000;7.840;2023-04-08T10:44:53;13.40;99.90
1225;DHT22;602;48.000;7.840;2023-04-08T10:47:24;13.40;99.90
1225;DHT22;602;48.000;7.840;2023-04-08T10:49:52;13.50;99.90
1225;DHT22;602;48.000;7.840;2023-04-08T10:52:19;13.40;99.90
1225;DHT22;602;48.000;7.840;2023-04-08T10:54:47;13.50;99.90
1225;DHT22;602;48.000;7.840;2023-04-08T10:57:22;13.50;99.90
1225;DHT22;602;48.000;7.840;2023-04-08T10:59:50;13.70;99.90
1225;DHT22;602;48.000;7.840;2023-04-08T11:02:16;13.70;99.90
1225;DHT22;602;48.000;7.840;2023-04-08T11:04:43;13.80;99.90
1225;DHT22;602;48.000;7.840;2023-04-08T11:07:12;13.90;99.90
1225;DHT22;602;48.000;7.840;2023-04-08T11:09:40;14.10;99.90
1225;DHT22;602;48.000;7.840;2023-04-08T11:12:07;14.30;99.90
1225;DHT22;602;48.000;7.840;2023-04-08T11:14:35;14.50;99.90
1225;DHT22;602;48.000;7.840;2023-04-08T11:17:03;14.80;99.90
1225;DHT22;602;48.000;7.840;2023-04-08T11:19:30;15.20;99.90
1225;DHT22;602;48.000;7.840;2023-04-08T11:21:57;15.50;99.90
1225;DHT22;602;48.000;7.840;2023-04-08T11:24:24;15.80;99.90
1225;DHT22;602;48.000;7.840;2023-04-08T11:26:51;16.10;99.90
1225;DHT22;602;48.000;7.840;2023-04-08T11:29:19;16.40;99.90
1225;DHT22;602;48.000;7.840;2023-04-08T11:31:48;16.50;99.90
1225;DHT22;602;48.000;7.840;2023-04-08T11:34:21;16.70;99.90
1225;DHT22;602;48.000;7.840;2023-04-08T11:36:49;16.90;99.90
1225;DHT22;602;48.000;7.840;2023-04-08T11:39:16;17.30;99.90
1225;DHT22;602;48.000;7.840;2023-04-08T11:41:43;17.10;99.90
1225;DHT22;602;48.000;7.840;2023-04-08T11:44:10;17.00;99.90
1225;DHT22;602;48.000;7.840;2023-04-08T11:46:37;17.20;99.90
1225;DHT22;602;48.000;7.840;2023-04-08T11:49:07;17.10;99.90
1225;DHT22;602;48.000;7.840;2023-04-08T11:51:53;17.10;99.90
1225;DHT22;602;48.000;7.840;2023-04-08T11:54:27;17.20;99.90
1225;DHT22;602;48.000;7.840;2023-04-08T11:56:54;17.60;99.90
1225;DHT22;602;48.000;7.840;2023-04-08T11:59:22;17.90;99.90
1225;DHT22;602;48.000;7.840;2023-04-08T12:01:50;18.20;99.90
1225;DHT22;602;48.000;7.840;2023-04-08T12:04:19;18.50;99.90
1225;DHT22;602;48.000;7.840;2023-04-08T12:06:45;18.60;99.90
1225;DHT22;602;48.000;7.840;2023-04-08T12:09:12;18.20;99.90
1225;DHT22;602;48.000;7.840;2023-04-08T12:11:40;18.20;99.90
1225;DHT22;602;48.000;7.840;2023-04-08T12:14:07;18.10;99.90
1225;DHT22;602;48.000;7.840;2023-04-08T12:16:34;18.10;99.90
1225;DHT22;602;48.000;7.840;2023-04-08T12:19:01;17.90;99.90
1225;DHT22;602;48.000;7.840;2023-04-08T12:21:29;18.10;99.90
1225;DHT22;602;48.000;7.840;2023-04-08T12:23:56;17.90;99.90
1225;DHT22;602;48.000;7.840;2023-04-08T12:26:23;17.80;99.90
1225;DHT22;602;48.000;7.840;2023-04-08T12:28:51;17.80;99.90
1225;DHT22;602;48.000;7.840;2023-04-08T12:31:18;17.80;99.90
1225;DHT22;602;48.000;7.840;2023-04-08T12:33:46;17.60;99.90
1225;DHT22;602;48.000;7.840;2023-04-08T12:36:12;17.60;99.90
1225;DHT22;602;48.000;7.840;2023-04-08T12:38:41;17.60;99.90
1225;DHT22;602;48.000;7.840;2023-04-08T12:41:08;17.50;99.90
1225;DHT22;602;48.000;7.840;2023-04-08T12:43:35;17.30;99.90
1225;DHT22;602;48.000;7.840;2023-04-08T12:46:02;17.10;99.90
1225;DHT22;602;48.000;7.840;2023-04-08T12:48:29;17.20;99.90
1225;DHT22;602;48.000;7.840;2023-04-08T12:50:56;17.40;99.90
1225;DHT22;602;48.000;7.840;2023-04-08T12:53:23;17.50;99.90
1225;DHT22;602;48.000;7.840;2023-04-08T12:55:51;17.60;99.90
1225;DHT22;602;48.000;7.840;2023-04-08T12:58:21;17.60;99.90
1225;DHT22;602;48.000;7.840;2023-04-08T13:00:48;17.60;99.90
1225;DHT22;602;48.000;7.840;2023-04-08T13:03:15;17.50;99.90
1225;DHT22;602;48.000;7.840;2023-04-08T13:05:42;17.50;99.90
1225;DHT22;602;48.000;7.840;2023-04-08T13:08:09;17.70;99.90
1225;DHT22;602;48.000;7.840;2023-04-08T13:10:36;17.60;99.90
1225;DHT22;602;48.000;7.840;2023-04-08T13:13:04;17.60;99.90
1225;DHT22;602;48.000;7.840;2023-04-08T13:15:31;17.60;99.90
1225;DHT22;602;48.000;7.840;2023-04-08T13:17:58;17.40;99.90
1225;DHT22;602;48.000;7.840;2023-04-08T13:20:25;17.30;99.90
1225;DHT22;602;48.000;7.840;2023-04-08T13:22:52;17.30;99.90
1225;DHT22;602;48.000;7.840;2023-04-08T13:25:19;17.50;99.90
1225;DHT22;602;48.000;7.840;2023-04-08T13:27:46;17.60;99.90
1225;DHT22;602;48.000;7.840;2023-04-08T13:30:15;17.40;99.90
1225;DHT22;602;48.000;7.840;2023-04-08T13:32:42;17.30;99.90
1225;DHT22;602;48.000;7.840;2023-04-08T13:35:09;17.40;99.90
1225;DHT22;602;48.000;7.840;2023-04-08T13:37:36;17.30;99.90
1225;DHT22;602;48.000;7.840;2023-04-08T13:40:03;17.40;99.90
1225;DHT22;602;48.000;7.840;2023-04-08T13:42:31;17.40;99.90
1225;DHT22;602;48.000;7.840;2023-04-08T13:44:57;17.40;99.90
1225;DHT22;602;48.000;7.840;2023-04-08T13:47:26;17.00;99.90
1225;DHT22;602;48.000;7.840;2023-04-08T13:49:53;17.00;99.90
1225;DHT22;602;48.000;7.840;2023-04-08T13:52:20;17.00;99.90
1225;DHT22;602;48.000;7.840;2023-04-08T13:54:47;16.90;99.90
1225;DHT22;602;48.000;7.840;2023-04-08T13:57:13;17.10;99.90
1225;DHT22;602;48.000;7.840;2023-04-08T13:59:40;17.10;99.90
1225;DHT22;602;48.000;7.840;2023-04-08T14:02:07;17.20;99.90
1225;DHT22;602;48.000;7.840;2023-04-08T14:04:35;17.10;99.90
1225;DHT22;602;48.000;7.840;2023-04-08T14:07:02;17.10;99.90
1225;DHT22;602;48.000;7.840;2023-04-08T14:09:29;17.20;99.90
1225;DHT22;602;48.000;7.840;2023-04-08T14:11:56;17.00;99.90
1225;DHT22;602;48.000;7.840;2023-04-08T14:14:23;17.00;99.90
1225;DHT22;602;48.000;7.840;2023-04-08T14:16:50;17.10;99.90
1225;DHT22;602;48.000;7.840;2023-04-08T14:19:17;17.10;99.90
1225;DHT22;602;48.000;7.840;2023-04-08T14:21:45;17.00;99.90
1225;DHT22;602;48.000;7.840;2023-04-08T14:24:12;16.90;99.90
1225;DHT22;602;48.000;7.840;2023-04-08T14:26:39;16.50;99.90
1225;DHT22;602;48.000;7.840;2023-04-08T14:29:06;16.50;99.90
1225;DHT22;602;48.000;7.840;2023-04-08T14:31:33;16.50;99.90
1225;DHT22;602;48.000;7.840;2023-04-08T14:34:00;16.50;99.90
1225;DHT22;602;48.000;7.840;2023-04-08T14:36:28;16.30;99.90
1225;DHT22;602;48.000;7.840;2023-04-08T14:38:57;16.20;99.90
1225;DHT22;602;48.000;7.840;2023-04-08T14:41:24;16.30;99.90
1225;DHT22;602;48.000;7.840;2023-04-08T14:43:51;16.30;99.90
1225;DHT22;602;48.000;7.840;2023-04-08T14:46:18;16.10;99.90
1225;DHT22;602;48.000;7.840;2023-04-08T14:48:45;16.10;99.90
1225;DHT22;602;48.000;7.840;2023-04-08T14:51:12;16.00;99.90
1225;DHT22;602;48.000;7.840;2023-04-08T14:53:39;15.90;99.90
1225;DHT22;602;48.000;7.840;2023-04-08T14:56:08;16.00;99.90
1225;DHT22;602;48.000;7.840;2023-04-08T14:58:35;16.10;99.90
1225;DHT22;602;48.000;7.840;2023-04-08T15:01:02;16.00;99.90
1225;DHT22;602;48.000;7.840;2023-04-08T15:03:29;16.00;99.90
1225;DHT22;602;48.000;7.840;2023-04-08T15:05:56;16.00;99.90
1225;DHT22;602;48.000;7.840;2023-04-08T15:08:23;16.00;99.90
1225;DHT22;602;48.000;7.840;2023-04-08T15:10:50;15.90;99.90
1225;DHT22;602;48.000;7.840;2023-04-08T15:13:18;15.90;99.90
1225;DHT22;602;48.000;7.840;2023-04-08T15:15:45;15.70;99.90
1225;DHT22;602;48.000;7.840;2023-04-08T15:18:11;15.70;99.90
1225;DHT22;602;48.000;7.840;2023-04-08T15:20:38;15.80;99.90
1225;DHT22;602;48.000;7.840;2023-04-08T15:23:06;15.60;99.90
1225;DHT22;602;48.000;7.840;2023-04-08T15:25:32;15.40;99.90
1225;DHT22;602;48.000;7.840;2023-04-08T15:27:59;15.50;99.90
1225;DHT22;602;48.000;7.840;2023-04-08T15:30:29;15.50;99.90
1225;DHT22;602;48.000;7.840;2023-04-08T15:33:01;15.50;99.90
1225;DHT22;602;48.000;7.840;2023-04-08T15:35:28;15.50;99.90
1225;DHT22;602;48.000;7.840;2023-04-08T15:37:55;15.50;99.90
1225;DHT22;602;48.000;7.840;2023-04-08T15:40:22;15.30;99.90
1225;DHT22;602;48.000;7.840;2023-04-08T15:42:48;15.30;99.90
1225;DHT22;602;48.000;7.840;2023-04-08T15:45:15;15.50;99.90
1225;DHT22;602;48.000;7.840;2023-04-08T15:47:43;15.50;99.90
1225;DHT22;602;48.000;7.840;2023-04-08T15:50:10;15.60;99.90
1225;DHT22;602;48.000;7.840;2023-04-08T15:52:37;15.60;99.90
1225;DHT22;602;48.000;7.840;2023-04-08T15:55:05;15.60;99.90
1225;DHT22;602;48.000;7.840;2023-04-08T15:57:32;15.50;99.90
1225;DHT22;602;48.000;7.840;2023-04-08T16:00:00;15.50;99.90
1225;DHT22;602;48.000;7.840;2023-04-08T16:02:28;15.50;99.90
1225;DHT22;602;48.000;7.840;2023-04-08T16:04:56;15.60;99.90
1225;DHT22;602;48.000;7.840;2023-04-08T16:07:23;15.60;99.90
1225;DHT22;602;48.000;7.840;2023-04-08T16:09:50;15.70;99.90
1225;DHT22;602;48.000;7.840;2023-04-08T16:12:16;15.70;99.90
1225;DHT22;602;48.000;7.840;2023-04-08T16:14:44;15.70;99.90
1225;DHT22;602;48.000;7.840;2023-04-08T16:17:12;15.60;99.90
1225;DHT22;602;48.000;7.840;2023-04-08T16:19:39;15.70;99.90
1225;DHT22;602;48.000;7.840;2023-04-08T16:22:07;15.70;99.90
1225;DHT22;602;48.000;7.840;2023-04-08T16:24:34;15.70;99.90
1225;DHT22;602;48.000;7.840;2023-04-08T16:27:02;15.70;99.90
1225;DHT22;602;48.000;7.840;2023-04-08T16:29:29;15.50;99.90
1225;DHT22;602;48.000;7.840;2023-04-08T16:31:56;15.50;99.90